PWSweather.com
Personal Weather Stations
Station Observations
CW6488
River Forest, Covington, LA 70433

River ForestCovington, LA 70433

Lat: 30.4876, Lon: -90.1406

Elevation: 32

Station Type: WMR968

Latest ConditionsUpdated 4:20:05 PM CST Sunday, Jan 20, 2019
Currently Today's Max Today's Min Today's Average
Temperature 49.4°F9.7°C 52.3°F11.3°C 38.1°F3.4°C 42.6°F5.9°C
Dew Point 35.7°F2.1°C 37.4°F3.0°C 32.0°F0.0°C 34.1°F1.2°C
Winds 2.0 mph NNE3.2 kmh NNE 4.0 mph -6.4 kmh - - 1.7 mph 2.7 kmh
Wind Gusts -- -- - -
Humidity 59% 81% 52% 72%
Pressure 30.22 in1023.4 mb 30.29 in1025.7 mb 30.05 in1017.6 mb -
Hour Temp Dew Point Humidity Winds Wind Gusts Pressure Precip Precip Rate Daily Precip Total
04:20 PM 49.4°F9.7°C 35.7°F2.1°C 59% 2.0 mph NNE3.2 kmh NNE -- 30.22 in1023.4 mb 0.00 in0.0 mm 0.00 in0.0 mm 0.00 in0.0 mm
04:10 PM 49.4°F9.7°C 35.7°F2.1°C 59% 1.0 mph NW1.6 kmh NW -- 30.22 in1023.4 mb 0.00 in0.0 mm 0.00 in0.0 mm 0.00 in0.0 mm
04:00 PM 49.4°F9.7°C 36.1°F2.3°C 60% 1.0 mph N1.6 kmh N -- 30.21 in1023.0 mb 0.00 in0.0 mm 0.00 in0.0 mm 0.00 in0.0 mm
03:50 PM 49.5°F9.7°C 36.2°F2.3°C 60% 1.0 mph NNW1.6 kmh NNW -- 30.21 in1023.0 mb 0.00 in0.0 mm 0.00 in0.0 mm 0.00 in0.0 mm
03:40 PM 49.6°F9.8°C 34.6°F1.4°C 56% 1.0 mph NNW1.6 kmh NNW -- 30.21 in1023.0 mb 0.00 in0.0 mm 0.00 in0.0 mm 0.00 in0.0 mm
03:30 PM 50.2°F10.1°C 36.0°F2.2°C 58% 1.0 mph NW1.6 kmh NW -- 30.21 in1023.0 mb 0.00 in0.0 mm 0.00 in0.0 mm 0.00 in0.0 mm
03:20 PM 50.1°F10.1°C 36.4°F2.4°C 59% 2.0 mph NNW3.2 kmh NNW -- 30.21 in1023.0 mb 0.00 in0.0 mm 0.00 in0.0 mm 0.00 in0.0 mm
03:10 PM 50.3°F10.2°C 36.5°F2.5°C 59% 1.0 mph ESE1.6 kmh ESE -- 30.21 in1023.0 mb 0.00 in0.0 mm 0.00 in0.0 mm 0.00 in0.0 mm
03:00 PM 50.4°F10.2°C 37.1°F2.8°C 60% 2.0 mph N3.2 kmh N -- 30.22 in1023.4 mb 0.00 in0.0 mm 0.00 in0.0 mm 0.00 in0.0 mm
02:50 PM 50.4°F10.2°C 34.4°F1.3°C 54% 1.0 mph N1.6 kmh N -- 30.22 in1023.4 mb 0.00 in0.0 mm 0.00 in0.0 mm 0.00 in0.0 mm
02:40 PM 51.1°F10.6°C 36.9°F2.7°C 58% 2.0 mph NNW3.2 kmh NNW -- 30.21 in1023.0 mb 0.00 in0.0 mm 0.00 in0.0 mm 0.00 in0.0 mm
02:30 PM 50.9°F10.5°C 36.2°F2.3°C 57% Calm Calm -- 30.21 in1023.0 mb 0.00 in0.0 mm 0.00 in0.0 mm 0.00 in0.0 mm
02:20 PM 52.3°F11.3°C 37.1°F2.8°C 56% 2.0 mph NNE3.2 kmh NNE -- 30.20 in1022.7 mb 0.00 in0.0 mm 0.00 in0.0 mm 0.00 in0.0 mm
02:10 PM 51.7°F10.9°C 34.7°F1.5°C 52% 2.0 mph N3.2 kmh N -- 30.20 in1022.7 mb 0.00 in0.0 mm 0.00 in0.0 mm 0.00 in0.0 mm
02:00 PM 50.3°F10.2°C 35.2°F1.8°C 56% 3.0 mph NW4.8 kmh NW -- 30.21 in1023.0 mb 0.00 in0.0 mm 0.00 in0.0 mm 0.00 in0.0 mm
01:50 PM 50.7°F10.4°C 36.5°F2.5°C 58% 2.0 mph NW3.2 kmh NW -- 30.21 in1023.0 mb 0.00 in0.0 mm 0.00 in0.0 mm 0.00 in0.0 mm
01:40 PM 50.6°F10.3°C 34.6°F1.4°C 54% 3.0 mph NNW4.8 kmh NNW -- 30.22 in1023.4 mb 0.00 in0.0 mm 0.00 in0.0 mm 0.00 in0.0 mm
01:30 PM 50.8°F10.4°C 37.4°F3.0°C 60% 2.0 mph NNE3.2 kmh NNE -- 30.22 in1023.4 mb 0.00 in0.0 mm 0.00 in0.0 mm 0.00 in0.0 mm
01:20 PM 50.8°F10.4°C 35.2°F1.8°C 55% 1.0 mph W1.6 kmh W -- 30.22 in1023.4 mb 0.00 in0.0 mm 0.00 in0.0 mm 0.00 in0.0 mm
01:10 PM 51.0°F10.6°C 36.3°F2.4°C 57% 1.0 mph NW1.6 kmh NW -- 30.22 in1023.4 mb 0.00 in0.0 mm 0.00 in0.0 mm 0.00 in0.0 mm
01:00 PM 48.8°F9.3°C 35.6°F2.0°C 60% 1.0 mph WNW1.6 kmh WNW -- 30.21 in1023.0 mb 0.00 in0.0 mm 0.00 in0.0 mm 0.00 in0.0 mm
12:50 PM 48.2°F9.0°C 34.6°F1.4°C 59% 1.0 mph E1.6 kmh E -- 30.20 in1022.7 mb 0.00 in0.0 mm 0.00 in0.0 mm 0.00 in0.0 mm
12:40 PM 48.4°F9.1°C 35.6°F2.0°C 61% 1.0 mph W1.6 kmh W -- 30.20 in1022.7 mb 0.00 in0.0 mm 0.00 in0.0 mm 0.00 in0.0 mm
12:30 PM 48.2°F9.0°C 36.2°F2.3°C 63% 1.0 mph NNW1.6 kmh NNW -- 30.21 in1023.0 mb 0.00 in0.0 mm 0.00 in0.0 mm 0.00 in0.0 mm
12:20 PM 47.4°F8.6°C 36.2°F2.3°C 65% 2.0 mph WNW3.2 kmh WNW -- 30.22 in1023.4 mb 0.00 in0.0 mm 0.00 in0.0 mm 0.00 in0.0 mm
12:10 PM 48.2°F9.0°C 37.0°F2.8°C 65% 3.0 mph NW4.8 kmh NW -- 30.23 in1023.7 mb 0.00 in0.0 mm 0.00 in0.0 mm 0.00 in0.0 mm
12:00 PM 47.2°F8.4°C 36.1°F2.3°C 65% 1.0 mph NW1.6 kmh NW -- 30.23 in1023.7 mb 0.00 in0.0 mm 0.00 in0.0 mm 0.00 in0.0 mm
11:50 AM 46.1°F7.8°C 35.0°F1.7°C 65% 2.0 mph W3.2 kmh W -- 30.23 in1023.7 mb 0.00 in0.0 mm 0.00 in0.0 mm 0.00 in0.0 mm
11:40 AM 45.3°F7.4°C 35.0°F1.7°C 67% 1.0 mph N1.6 kmh N -- 30.25 in1024.4 mb 0.00 in0.0 mm 0.00 in0.0 mm 0.00 in0.0 mm
11:30 AM 45.2°F7.3°C 34.9°F1.6°C 67% 1.0 mph NW1.6 kmh NW -- 30.25 in1024.4 mb 0.00 in0.0 mm 0.00 in0.0 mm 0.00 in0.0 mm
11:20 AM 45.2°F7.3°C 35.7°F2.1°C 69% 3.0 mph N4.8 kmh N -- 30.26 in1024.7 mb 0.00 in0.0 mm 0.00 in0.0 mm 0.00 in0.0 mm
11:10 AM 44.6°F7.0°C 35.8°F2.1°C 71% 2.0 mph N3.2 kmh N -- 30.25 in1024.4 mb 0.00 in0.0 mm 0.00 in0.0 mm 0.00 in0.0 mm
11:00 AM 42.9°F6.1°C 33.4°F0.8°C 69% Calm Calm -- 30.26 in1024.7 mb 0.00 in0.0 mm 0.00 in0.0 mm 0.00 in0.0 mm
10:50 AM 42.6°F5.9°C 34.6°F1.4°C 73% 1.0 mph SSE1.6 kmh SSE -- 30.28 in1025.4 mb 0.00 in0.0 mm 0.00 in0.0 mm 0.00 in0.0 mm
10:40 AM 41.0°F5.0°C 33.7°F0.9°C 75% 3.0 mph NW4.8 kmh NW -- 30.29 in1025.7 mb 0.00 in0.0 mm 0.00 in0.0 mm 0.00 in0.0 mm
10:30 AM 40.9°F4.9°C 32.9°F0.5°C 73% 1.0 mph NNW1.6 kmh NNW -- 30.29 in1025.7 mb 0.00 in0.0 mm 0.00 in0.0 mm 0.00 in0.0 mm
10:20 AM 40.3°F4.6°C 33.7°F0.9°C 77% 2.0 mph NNW3.2 kmh NNW -- 30.29 in1025.7 mb 0.00 in0.0 mm 0.00 in0.0 mm 0.00 in0.0 mm
10:10 AM 40.2°F4.6°C 32.6°F0.3°C 74% 3.0 mph NW4.8 kmh NW -- 30.28 in1025.4 mb 0.00 in0.0 mm 0.00 in0.0 mm 0.00 in0.0 mm
10:00 AM 40.2°F4.6°C 32.9°F0.5°C 75% 2.0 mph NNW3.2 kmh NNW -- 30.27 in1025.1 mb 0.00 in0.0 mm 0.00 in0.0 mm 0.00 in0.0 mm
09:50 AM 40.1°F4.5°C 33.5°F0.8°C 77% 1.0 mph NNW1.6 kmh NNW -- 30.26 in1024.7 mb 0.00 in0.0 mm 0.00 in0.0 mm 0.00 in0.0 mm
09:40 AM 39.5°F4.2°C 33.2°F0.7°C 78% Calm Calm -- 30.26 in1024.7 mb 0.00 in0.0 mm 0.00 in0.0 mm 0.00 in0.0 mm
09:30 AM 38.9°F3.8°C 32.6°F0.3°C 78% 2.0 mph N3.2 kmh N -- 30.27 in1025.1 mb 0.00 in0.0 mm 0.00 in0.0 mm 0.00 in0.0 mm
09:20 AM 38.7°F3.7°C 32.8°F0.4°C 79% 4.0 mph N6.4 kmh N -- 30.26 in1024.7 mb 0.00 in0.0 mm 0.00 in0.0 mm 0.00 in0.0 mm
09:10 AM 38.6°F3.7°C 32.0°F0.0°C 77% 1.0 mph N1.6 kmh N -- 30.25 in1024.4 mb 0.00 in0.0 mm 0.00 in0.0 mm 0.00 in0.0 mm
09:00 AM 38.4°F3.6°C 32.2°F0.1°C 78% 1.0 mph NNW1.6 kmh NNW -- 30.26 in1024.7 mb 0.00 in0.0 mm 0.00 in0.0 mm 0.00 in0.0 mm
08:50 AM 38.3°F3.5°C 32.1°F0.1°C 78% 2.0 mph WNW3.2 kmh WNW -- 30.25 in1024.4 mb 0.00 in0.0 mm 0.00 in0.0 mm 0.00 in0.0 mm
08:40 AM 38.2°F3.4°C 32.0°F0.0°C 78% 2.0 mph N3.2 kmh N -- 30.24 in1024.0 mb 0.00 in0.0 mm 0.00 in0.0 mm 0.00 in0.0 mm
08:30 AM 38.3°F3.5°C 32.1°F0.1°C 78% 2.0 mph NW3.2 kmh NW -- 30.23 in1023.7 mb 0.00 in0.0 mm 0.00 in0.0 mm 0.00 in0.0 mm
08:20 AM 38.2°F3.4°C 32.3°F0.2°C 79% 2.0 mph WSW3.2 kmh WSW -- 30.24 in1024.0 mb 0.00 in0.0 mm 0.00 in0.0 mm 0.00 in0.0 mm
08:10 AM 38.2°F3.4°C 32.3°F0.2°C 79% 1.0 mph N1.6 kmh N -- 30.23 in1023.7 mb 0.00 in0.0 mm 0.00 in0.0 mm 0.00 in0.0 mm
08:00 AM 38.2°F3.4°C 32.3°F0.2°C 79% 1.0 mph N1.6 kmh N -- 30.23 in1023.7 mb 0.00 in0.0 mm 0.00 in0.0 mm 0.00 in0.0 mm
07:50 AM 38.3°F3.5°C 32.4°F0.2°C 79% 2.0 mph NNW3.2 kmh NNW -- 30.22 in1023.4 mb 0.00 in0.0 mm 0.00 in0.0 mm 0.00 in0.0 mm
07:40 AM 38.2°F3.4°C 32.6°F0.3°C 80% Calm Calm -- 30.22 in1023.4 mb 0.00 in0.0 mm 0.00 in0.0 mm 0.00 in0.0 mm
07:30 AM 38.2°F3.4°C 32.6°F0.3°C 80% 2.0 mph NW3.2 kmh NW -- 30.22 in1023.4 mb 0.00 in0.0 mm 0.00 in0.0 mm 0.00 in0.0 mm
07:20 AM 38.2°F3.4°C 32.3°F0.2°C 79% 1.0 mph N1.6 kmh N -- 30.22 in1023.4 mb 0.00 in0.0 mm 0.00 in0.0 mm 0.00 in0.0 mm
07:10 AM 38.1°F3.4°C 32.5°F0.3°C 80% 1.0 mph NW1.6 kmh NW -- 30.22 in1023.4 mb 0.00 in0.0 mm 0.00 in0.0 mm 0.00 in0.0 mm
07:00 AM 38.1°F3.4°C 32.5°F0.3°C 80% 2.0 mph N3.2 kmh N -- 30.21 in1023.0 mb 0.00 in0.0 mm 0.00 in0.0 mm 0.00 in0.0 mm
06:50 AM 38.1°F3.4°C 32.5°F0.3°C 80% 3.0 mph NNW4.8 kmh NNW -- 30.20 in1022.7 mb 0.00 in0.0 mm 0.00 in0.0 mm 0.00 in0.0 mm
06:40 AM 38.2°F3.4°C 32.3°F0.2°C 79% 2.0 mph NW3.2 kmh NW -- 30.20 in1022.7 mb 0.00 in0.0 mm 0.00 in0.0 mm 0.00 in0.0 mm
06:30 AM 38.2°F3.4°C 32.9°F0.5°C 81% 2.0 mph SSE3.2 kmh SSE -- 30.19 in1022.4 mb 0.00 in0.0 mm 0.00 in0.0 mm 0.00 in0.0 mm
06:20 AM 38.2°F3.4°C 32.6°F0.3°C 80% 2.0 mph NW3.2 kmh NW -- 30.18 in1022.0 mb 0.00 in0.0 mm 0.00 in0.0 mm 0.00 in0.0 mm
06:10 AM 38.2°F3.4°C 32.6°F0.3°C 80% 3.0 mph NW4.8 kmh NW -- 30.18 in1022.0 mb 0.00 in0.0 mm 0.00 in0.0 mm 0.00 in0.0 mm
06:00 AM 38.2°F3.4°C 32.3°F0.2°C 79% 3.0 mph WNW4.8 kmh WNW -- 30.17 in1021.7 mb 0.00 in0.0 mm 0.00 in0.0 mm 0.00 in0.0 mm
05:50 AM 38.3°F3.5°C 32.4°F0.2°C 79% 3.0 mph NNW4.8 kmh NNW -- 30.16 in1021.3 mb 0.00 in0.0 mm 0.00 in0.0 mm 0.00 in0.0 mm
05:40 AM 38.4°F3.6°C 32.2°F0.1°C 78% 1.0 mph NW1.6 kmh NW -- 30.15 in1021.0 mb 0.00 in0.0 mm 0.00 in0.0 mm 0.00 in0.0 mm
05:30 AM 38.5°F3.6°C 32.9°F0.5°C 80% 2.0 mph NNW3.2 kmh NNW -- 30.15 in1021.0 mb 0.00 in0.0 mm 0.00 in0.0 mm 0.00 in0.0 mm
05:20 AM 38.6°F3.7°C 33.0°F0.6°C 80% 3.0 mph NNW4.8 kmh NNW -- 30.14 in1020.7 mb 0.00 in0.0 mm 0.00 in0.0 mm 0.00 in0.0 mm
05:10 AM 38.6°F3.7°C 33.3°F0.7°C 81% 4.0 mph WNW6.4 kmh WNW -- 30.13 in1020.3 mb 0.00 in0.0 mm 0.00 in0.0 mm 0.00 in0.0 mm
05:00 AM 38.6°F3.7°C 33.0°F0.6°C 80% Calm Calm -- 30.13 in1020.3 mb 0.00 in0.0 mm 0.00 in0.0 mm 0.00 in0.0 mm
04:50 AM 38.8°F3.8°C 32.9°F0.5°C 79% 1.0 mph W1.6 kmh W -- 30.11 in1019.6 mb 0.00 in0.0 mm 0.00 in0.0 mm 0.00 in0.0 mm
04:40 AM 38.9°F3.8°C 33.0°F0.6°C 79% Calm Calm -- 30.11 in1019.6 mb 0.00 in0.0 mm 0.00 in0.0 mm 0.00 in0.0 mm
04:30 AM 38.9°F3.8°C 33.0°F0.6°C 79% 1.0 mph NW1.6 kmh NW -- 30.10 in1019.3 mb 0.00 in0.0 mm 0.00 in0.0 mm 0.00 in0.0 mm
04:20 AM 38.9°F3.8°C 33.0°F0.6°C 79% 1.0 mph N1.6 kmh N -- 30.10 in1019.3 mb 0.00 in0.0 mm 0.00 in0.0 mm 0.00 in0.0 mm
04:10 AM 38.9°F3.8°C 33.0°F0.6°C 79% 1.0 mph NNW1.6 kmh NNW -- 30.10 in1019.3 mb 0.00 in0.0 mm 0.00 in0.0 mm 0.00 in0.0 mm
04:00 AM 39.0°F3.9°C 33.1°F0.6°C 79% 2.0 mph NNW3.2 kmh NNW -- 30.10 in1019.3 mb 0.00 in0.0 mm 0.00 in0.0 mm 0.00 in0.0 mm
03:50 AM 39.1°F3.9°C 33.5°F0.8°C 80% 3.0 mph N4.8 kmh N -- 30.10 in1019.3 mb 0.00 in0.0 mm 0.00 in0.0 mm 0.00 in0.0 mm
03:40 AM 39.2°F4.0°C 32.9°F0.5°C 78% 3.0 mph NW4.8 kmh NW -- 30.10 in1019.3 mb 0.00 in0.0 mm 0.00 in0.0 mm 0.00 in0.0 mm
03:30 AM 39.3°F4.1°C 33.3°F0.7°C 79% 1.0 mph NW1.6 kmh NW -- 30.10 in1019.3 mb 0.00 in0.0 mm 0.00 in0.0 mm 0.00 in0.0 mm
03:20 AM 39.4°F4.1°C 33.1°F0.6°C 78% 1.0 mph NNW1.6 kmh NNW -- 30.10 in1019.3 mb 0.00 in0.0 mm 0.00 in0.0 mm 0.00 in0.0 mm
03:10 AM 39.6°F4.2°C 33.6°F0.9°C 79% 3.0 mph NNW4.8 kmh NNW -- 30.09 in1019.0 mb 0.00 in0.0 mm 0.00 in0.0 mm 0.00 in0.0 mm
03:00 AM 39.7°F4.3°C 33.4°F0.8°C 78% 2.0 mph N3.2 kmh N -- 30.09 in1019.0 mb 0.00 in0.0 mm 0.00 in0.0 mm 0.00 in0.0 mm
02:50 AM 39.9°F4.4°C 33.6°F0.9°C 78% 1.0 mph NW1.6 kmh NW -- 30.09 in1019.0 mb 0.00 in0.0 mm 0.00 in0.0 mm 0.00 in0.0 mm
02:40 AM 40.0°F4.4°C 33.4°F0.8°C 77% 2.0 mph N3.2 kmh N -- 30.10 in1019.3 mb 0.00 in0.0 mm 0.00 in0.0 mm 0.00 in0.0 mm
02:30 AM 40.1°F4.5°C 33.8°F1.0°C 78% 3.0 mph NNE4.8 kmh NNE -- 30.10 in1019.3 mb 0.00 in0.0 mm 0.00 in0.0 mm 0.00 in0.0 mm
02:20 AM 40.2°F4.6°C 33.3°F0.7°C 76% 2.0 mph NNW3.2 kmh NNW -- 30.09 in1019.0 mb 0.00 in0.0 mm 0.00 in0.0 mm 0.00 in0.0 mm
02:10 AM 40.4°F4.7°C 34.1°F1.2°C 78% Calm Calm -- 30.09 in1019.0 mb 0.00 in0.0 mm 0.00 in0.0 mm 0.00 in0.0 mm
02:00 AM 40.5°F4.7°C 34.5°F1.4°C 79% 1.0 mph NW1.6 kmh NW -- 30.08 in1018.6 mb 0.00 in0.0 mm 0.00 in0.0 mm 0.00 in0.0 mm
01:50 AM 40.6°F4.8°C 34.3°F1.3°C 78% 2.0 mph NNW3.2 kmh NNW -- 30.08 in1018.6 mb 0.00 in0.0 mm 0.00 in0.0 mm 0.00 in0.0 mm
01:40 AM 40.7°F4.8°C 34.4°F1.3°C 78% 4.0 mph NW6.4 kmh NW -- 30.06 in1017.9 mb 0.00 in0.0 mm 0.00 in0.0 mm 0.00 in0.0 mm
01:30 AM 40.9°F4.9°C 34.3°F1.3°C 77% 3.0 mph NW4.8 kmh NW -- 30.06 in1017.9 mb 0.00 in0.0 mm 0.00 in0.0 mm 0.00 in0.0 mm
01:20 AM 41.1°F5.1°C 34.1°F1.2°C 76% 4.0 mph WNW6.4 kmh WNW -- 30.06 in1017.9 mb 0.00 in0.0 mm 0.00 in0.0 mm 0.00 in0.0 mm
01:10 AM 41.3°F5.2°C 34.7°F1.5°C 77% 3.0 mph W4.8 kmh W -- 30.06 in1017.9 mb 0.00 in0.0 mm 0.00 in0.0 mm 0.00 in0.0 mm
01:00 AM 41.4°F5.2°C 35.1°F1.7°C 78% 2.0 mph W3.2 kmh W -- 30.05 in1017.6 mb 0.00 in0.0 mm 0.00 in0.0 mm 0.00 in0.0 mm
12:50 AM 41.5°F5.3°C 34.8°F1.6°C 77% Calm Calm -- 30.05 in1017.6 mb 0.00 in0.0 mm 0.00 in0.0 mm 0.00 in0.0 mm
12:40 AM 41.6°F5.3°C 34.9°F1.6°C 77% 1.0 mph NW1.6 kmh NW -- 30.05 in1017.6 mb 0.00 in0.0 mm 0.00 in0.0 mm 0.00 in0.0 mm
12:30 AM 41.8°F5.4°C 35.1°F1.7°C 77% 3.0 mph NNE4.8 kmh NNE -- 30.05 in1017.6 mb 0.00 in0.0 mm 0.00 in0.0 mm 0.00 in0.0 mm
12:20 AM 42.0°F5.6°C 35.0°F1.7°C 76% 2.0 mph NW3.2 kmh NW -- 30.05 in1017.6 mb 0.00 in0.0 mm 0.00 in0.0 mm 0.00 in0.0 mm
12:10 AM 42.1°F5.6°C 36.1°F2.3°C 79% 2.0 mph N3.2 kmh N -- 30.05 in1017.6 mb 0.00 in0.0 mm 0.00 in0.0 mm 0.00 in0.0 mm
12:00 AM 42.2°F5.7°C 35.8°F2.1°C 78% 2.0 mph NW3.2 kmh NW -- 30.05 in1017.6 mb 0.00 in0.0 mm 0.00 in0.0 mm 0.00 in0.0 mm